Cozumel, Mexico

1:57 PM EST on February 12, 2016 (GMT -0500)
Cozumel | | Change Station
CLOSE
Current Station
Personal Weather Station
Location: Cozumel, Q.ROO
Elevation: 46 ft
Nearby Weather Stations

Elev 46 ft 20.50 °N, 86.96 °W | Updated 7 minutes ago

Scattered Clouds
Scattered Clouds
76.3 °F
Feels Like 78 °F
N
6.0
Wind Variable Wind from ENE
Gusts 12.0 mph

Today
High -- | Low -- °F
--% Chance of Precip.
Yesterday
High -- | Low -- °F
Precip. -- in
Pressure 30.18 in
Visibility 8.0 miles
Clouds Scattered Clouds 1500 ft
Heat Index 78 °F
Dew Point 63 °F
Humidity 63%
Rainfall 0.00 in
Snow Depth Not available.
7:19 AM 6:44 PM
Waxing Crescent, 22% visible
METAR MMCZ 121841Z 05008KT 8SM SCT015 22/15 A3018 RMK 8/100 SC
Pressure 30.18 in
Visibility 8.0 miles
Clouds Scattered Clouds 1500 ft
Heat Index 78 °F
Dew Point 63 °F
Humidity 63%
Rainfall 0.00 in
Snow Depth Not available.
7:19 AM 6:44 PM
Waxing Crescent, 22% visible
METAR MMCZ 121841Z 05008KT 8SM SCT015 22/15 A3018 RMK 8/100 SC

10-Day Weather Forecast

No radar image for this location.
×

Almanac

Astronomy

Feb. 12, 2016 Rise Set
Actual Time
Civil Twilight
Nautical Twilight
Astronomical Twilight
Moon
Length of Visible Light
Length of Day
Tomorrow will be .
, % of the Moon is Illuminated

Today's Extremes

Country Highs Country Lows

Community

WunderPhotos

Upload Photos

1,892,369 photos uploaded!

WunderBlog® & News

Nearby

Air Quality

  Air Quality AQ Index Pollutant
Not available.

Snow Depth

Station Depth Elevation

Earthquake Activity

City Distance Mag. Time & Date
Minimum magnitude displayed is 2.5.

Coastal Water Temperatures

Place Temperature

Stations

Nearby Weather Stations

Station Location Temp. Windchill Dew Point Humidity Wind Precip. Elev Updated Type